Time;durP1;ratioP1;P1;durP2;ratioP2;P2;SDS_P1;SDS_P2;PMS_P1;PMS_P2;Temp;Humidity;BMP_temperature;BMP_pressure;BME280_temperature;BME280_humidity;BME280_pressure;Samples;Min_cycle;Max_cycle;Signal;HPM_P1;HPM_P2
2024/01/22 00:00:42;;;;;;;;;;;;;;;6.05;100.00;100502.84;4838718;29;20015;-72
2024/01/22 00:03:09;;;;;;;;;;;;;;;6.06;100.00;100480.47;4840528;29;20048;-73
2024/01/22 00:05:35;;;;;;;;;;;;;;;6.12;100.00;100498.47;4839830;29;20110;-73
2024/01/22 00:08:02;;;;;;;;;;;;;;;6.19;100.00;100495.94;4839699;29;20496;-73
2024/01/22 00:10:27;;;;;;;;;;;;;;;6.27;100.00;100469.13;4839661;29;20023;-74
2024/01/22 00:12:52;;;;;;;;;;;;;;;6.34;100.00;100459.41;4822121;29;20027;-72
2024/01/22 00:15:17;;;;;;;;;;;;;;;6.41;100.00;100454.16;4839848;29;19956;-72
2024/01/22 00:17:43;;;;;;;;;;;;;;;6.47;100.00;100458.81;4840884;29;20046;-73
2024/01/22 00:20:08;;;;;;;;;;;;;;;6.52;100.00;100469.81;4838736;29;19960;-73
2024/01/22 00:22:33;;;;;;;;;;;;;;;6.55;100.00;100430.31;4840073;29;20025;-72
2024/01/22 00:24:58;;;;;;;;;;;;;;;6.63;100.00;100414.19;4840508;29;20297;-72
2024/01/22 00:27:24;;;;;;;;;;;;;;;6.64;100.00;100389.13;4839273;29;20016;-72
2024/01/22 00:29:49;;;;;;;;;;;;;;;6.76;100.00;100365.44;4839983;29;20019;-72
2024/01/22 00:32:14;;;;;;;;;;;;;;;6.77;100.00;100391.16;4839704;29;20007;-72
2024/01/22 00:34:39;;;;;;;;;;;;;;;6.79;100.00;100387.28;4838753;29;19967;-72
2024/01/22 00:37:04;;;;;;;;;;;;;;;6.82;100.00;100402.97;4839788;29;20028;-72
2024/01/22 00:39:30;;;;;;;;;;;;;;;6.81;100.00;100368.34;4840790;29;19925;-72
2024/01/22 00:41:56;;;;;;;;;;;;;;;6.82;100.00;100376.22;4839282;29;19988;-72
2024/01/22 00:44:21;;;;;;;;;;;;;;;6.87;100.00;100350.75;4839844;29;19989;-73
2024/01/22 00:46:47;;;;;;;;;;;;;;;6.89;100.00;100367.44;4840529;29;19924;-72
2024/01/22 00:49:12;;;;;;;;;;;;;;;6.89;100.00;100340.69;4842622;29;19931;-73
2024/01/22 00:51:37;;;;;;;;;;;;;;;6.91;100.00;100346.69;4842837;29;19939;-72
2024/01/22 00:54:02;;;;;;;;;;;;;;;6.92;100.00;100326.94;4844189;29;19925;-73
2024/01/22 00:56:28;;;;;;;;;;;;;;;6.94;100.00;100314.19;4842343;29;19925;-72
2024/01/22 00:58:53;;;;;;;;;;;;;;;6.93;100.00;100333.94;4843358;29;19920;-73
2024/01/22 01:01:18;;;;;;;;;;;;;;;6.95;100.00;100283.75;4842616;29;19925;-72
2024/01/22 01:03:43;;;;;;;;;;;;;;;6.98;100.00;100318.16;4842480;29;19927;-72
2024/01/22 01:06:08;;;;;;;;;;;;;;;6.98;100.00;100307.47;4841626;29;19928;-72
2024/01/22 01:08:34;;;;;;;;;;;;;;;6.99;100.00;100295.75;4842408;29;19932;-72
2024/01/22 01:10:59;;;;;;;;;;;;;;;6.96;100.00;100272.88;4842112;29;19928;-72
2024/01/22 01:13:24;;;;;;;;;;;;;;;6.97;100.00;100285.22;4842316;29;19939;-73
2024/01/22 01:15:49;;;;;;;;;;;;;;;6.97;100.00;100279.88;4843149;29;19925;-72
2024/01/22 01:18:14;;;;;;;;;;;;;;;7.00;100.00;100292.06;4851518;29;19939;-72
2024/01/22 01:20:40;;;;;;;;;;;;;;;7.04;100.00;100266.59;4860647;29;19928;-72
2024/01/22 01:23:05;;;;;;;;;;;;;;;7.06;100.00;100290.47;4860480;29;19949;-71
2024/01/22 01:25:30;;;;;;;;;;;;;;;7.07;100.00;100266.19;4861140;29;19932;-71
2024/01/22 01:27:55;;;;;;;;;;;;;;;7.06;100.00;100216.34;4861239;29;19976;-73
2024/01/22 01:30:21;;;;;;;;;;;;;;;7.10;100.00;100247.06;4860107;29;19940;-73
2024/01/22 01:32:46;;;;;;;;;;;;;;;7.11;100.00;100280.03;4861613;29;20056;-73
2024/01/22 01:35:11;;;;;;;;;;;;;;;7.11;100.00;100282.72;4860447;29;19949;-72
2024/01/22 01:37:36;;;;;;;;;;;;;;;7.15;100.00;100294.69;4860160;29;19920;-73
2024/01/22 01:40:02;;;;;;;;;;;;;;;7.16;100.00;100282.97;4861754;29;20057;-72
2024/01/22 01:42:27;;;;;;;;;;;;;;;7.20;100.00;100303.00;4859124;29;20015;-72
2024/01/22 01:44:52;;;;;;;;;;;;;;;7.20;100.00;100312.88;4860316;29;20007;-72
2024/01/22 01:47:18;;;;;;;;;;;;;;;7.22;100.00;100306.31;4860717;29;20031;-72
2024/01/22 01:49:43;;;;;;;;;;;;;;;7.29;100.00;100322.44;4860539;29;20368;-72
2024/01/22 01:52:09;;;;;;;;;;;;;;;7.32;100.00;100299.84;4858682;29;20019;-71
2024/01/22 01:54:35;;;;;;;;;;;;;;;7.33;100.00;100302.31;4860684;29;20377;-72
2024/01/22 01:57:00;;;;;;;;;;;;;;;7.35;100.00;100329.75;4852755;29;19989;-72
2024/01/22 01:59:25;;;;;;;;;;;;;;;7.38;100.00;100305.25;4858068;29;19928;-72
2024/01/22 02:01:50;;;;;;;;;;;;;;;7.39;100.00;100314.97;4859485;29;19927;-72
2024/01/22 02:04:15;;;;;;;;;;;;;;;7.40;100.00;100281.81;4860691;29;20039;-72
2024/01/22 02:06:41;;;;;;;;;;;;;;;7.44;100.00;100304.47;4859441;29;20019;-72
2024/01/22 02:09:06;;;;;;;;;;;;;;;7.48;100.00;100293.41;4859398;29;20043;-72
2024/01/22 02:11:32;;;;;;;;;;;;;;;7.47;100.00;100318.53;4859982;29;19974;-72
2024/01/22 02:13:57;;;;;;;;;;;;;;;7.46;100.00;100282.88;4858886;29;20373;-72
2024/01/22 02:16:22;;;;;;;;;;;;;;;7.45;100.00;100283.91;4861233;29;20433;-72
2024/01/22 02:18:47;;;;;;;;;;;;;;;7.45;100.00;100283.91;4845952;29;19925;-73
2024/01/22 02:21:13;;;;;;;;;;;;;;;7.41;100.00;100287.97;4840698;29;19932;-73
2024/01/22 02:23:39;;;;;;;;;;;;;;;7.44;100.00;100253.59;4842706;29;19971;-73
2024/01/22 02:26:04;;;;;;;;;;;;;;;7.48;100.00;100247.88;4840924;29;19956;-72
2024/01/22 02:28:31;;;;;;;;;;;;;;;7.49;100.00;100182.56;4841046;29;20014;-73
2024/01/22 02:30:56;;;;;;;;;;;;;;;7.49;100.00;100230.78;4842122;29;19924;-73
2024/01/22 02:33:21;;;;;;;;;;;;;;;7.51;100.00;100239.47;4841234;29;19931;-73
2024/01/22 02:35:47;;;;;;;;;;;;;;;7.51;100.00;100223.38;4841437;29;21146;-73
2024/01/22 02:38:12;;;;;;;;;;;;;;;7.50;100.00;100208.34;4842483;29;19932;-73
2024/01/22 02:40:37;;;;;;;;;;;;;;;7.54;100.00;100207.75;4840931;29;19924;-72
2024/01/22 02:43:02;;;;;;;;;;;;;;;7.56;100.00;100196.88;4842179;29;19931;-72
2024/01/22 02:45:27;;;;;;;;;;;;;;;7.62;100.00;100155.06;4842805;29;19925;-72
2024/01/22 02:47:53;;;;;;;;;;;;;;;7.63;100.00;100204.94;4845802;29;19924;-73
2024/01/22 02:50:18;;;;;;;;;;;;;;;7.65;100.00;100181.47;4845592;29;19924;-74
2024/01/22 02:52:43;;;;;;;;;;;;;;;7.66;100.00;100188.50;4841487;29;19924;-72
2024/01/22 02:55:08;;;;;;;;;;;;;;;7.64;100.00;100175.28;4841021;29;20029;-72
2024/01/22 02:57:34;;;;;;;;;;;;;;;7.69;100.00;100137.19;4840840;29;19920;-72
2024/01/22 02:59:59;;;;;;;;;;;;;;;7.66;100.00;100148.31;4842146;29;19936;-74
2024/01/22 03:02:24;;;;;;;;;;;;;;;7.67;100.00;100148.09;4840870;29;19920;-72
2024/01/22 03:04:49;;;;;;;;;;;;;;;7.65;100.00;100122.53;4841053;29;20293;-72
2024/01/22 03:07:14;;;;;;;;;;;;;;;7.69;100.00;100103.19;4841640;29;20326;-72
2024/01/22 03:09:40;;;;;;;;;;;;;;;7.49;100.00;100107.59;4840573;29;20296;-72
2024/01/22 03:12:05;;;;;;;;;;;;;;;7.30;100.00;100098.41;4840300;29;20305;-72
2024/01/22 03:14:30;;;;;;;;;;;;;;;7.18;100.00;100104.25;4841166;29;20507;-72
2024/01/22 03:16:56;;;;;;;;;;;;;;;7.10;100.00;100078.47;4841237;29;19925;-71
2024/01/22 03:19:21;;;;;;;;;;;;;;;7.02;100.00;100075.94;4858048;29;19948;-72
2024/01/22 03:21:46;;;;;;;;;;;;;;;6.97;100.00;100078.34;4858806;29;19924;-72
2024/01/22 03:24:12;;;;;;;;;;;;;;;6.94;100.00;100074.22;4857401;29;19930;-72
2024/01/22 03:26:37;;;;;;;;;;;;;;;6.94;100.00;100063.53;4858432;29;20032;-73
2024/01/22 03:29:02;;;;;;;;;;;;;;;6.90;100.00;100058.72;4859516;29;20027;-73
2024/01/22 03:31:27;;;;;;;;;;;;;;;6.82;100.00;100057.00;4859003;29;20007;-73
2024/01/22 03:33:53;;;;;;;;;;;;;;;6.75;100.00;100043.56;4858600;29;20015;-73
2024/01/22 03:36:18;;;;;;;;;;;;;;;6.75;100.00;100056.13;4859096;29;19928;-73
2024/01/22 03:38:44;;;;;;;;;;;;;;;6.78;100.00;100045.88;4859232;29;20375;-73
2024/01/22 03:41:09;;;;;;;;;;;;;;;6.76;100.00;100033.72;4858897;29;20409;-73
2024/01/22 03:43:34;;;;;;;;;;;;;;;6.81;100.00;100048.16;4859161;29;19924;-72
2024/01/22 03:45:59;;;;;;;;;;;;;;;6.81;100.00;100029.44;4859236;29;19931;-73
2024/01/22 03:48:25;;;;;;;;;;;;;;;6.91;100.00;100017.56;4858875;29;19924;-73
2024/01/22 03:50:51;;;;;;;;;;;;;;;6.93;100.00;100026.22;4857727;29;19924;-73
2024/01/22 03:53:16;;;;;;;;;;;;;;;6.95;100.00;100032.22;4857991;29;19953;-73
2024/01/22 03:55:41;;;;;;;;;;;;;;;6.97;100.00;100038.22;4858649;29;19925;-73
2024/01/22 03:58:07;;;;;;;;;;;;;;;6.98;100.00;100031.84;4857906;29;19980;-73
2024/01/22 04:00:32;;;;;;;;;;;;;;;6.98;100.00;100031.84;4858950;29;19924;-72
2024/01/22 04:02:57;;;;;;;;;;;;;;;7.02;100.00;99987.63;4858196;29;19974;-72
2024/01/22 04:05:22;;;;;;;;;;;;;;;7.05;100.00;100005.13;4858182;29;19963;-73
2024/01/22 04:07:47;;;;;;;;;;;;;;;7.02;100.00;100013.53;4859102;29;20289;-73
2024/01/22 04:10:13;;;;;;;;;;;;;;;7.03;100.00;99991.97;4858853;29;20270;-73
2024/01/22 04:12:39;;;;;;;;;;;;;;;7.07;100.00;99998.53;4857406;29;20355;-72
2024/01/22 04:15:04;;;;;;;;;;;;;;;7.07;100.00;100000.41;4858809;29;19952;-73
2024/01/22 04:17:29;;;;;;;;;;;;;;;7.08;100.00;100007.41;4858469;29;20424;-73
2024/01/22 04:19:55;;;;;;;;;;;;;;;7.09;100.00;99995.69;4857808;29;19924;-74
2024/01/22 04:22:20;;;;;;;;;;;;;;;7.09;100.00;99991.16;4859399;29;19920;-73
2024/01/22 04:24:45;;;;;;;;;;;;;;;7.17;100.00;99992.03;4862253;29;20023;-74
2024/01/22 04:27:10;;;;;;;;;;;;;;;7.16;100.00;99995.75;4860945;29;20011;-73
2024/01/22 04:29:35;;;;;;;;;;;;;;;7.21;100.00;99982.59;4862735;29;19963;-72
2024/01/22 04:32:01;;;;;;;;;;;;;;;7.21;100.00;99971.91;4862408;29;19943;-73
2024/01/22 04:34:26;;;;;;;;;;;;;;;7.20;100.00;99988.97;4861727;29;19933;-72
2024/01/22 04:36:51;;;;;;;;;;;;;;;7.24;100.00;99966.13;4862435;29;20292;-73
2024/01/22 04:39:16;;;;;;;;;;;;;;;7.28;100.00;99959.34;4861270;29;20403;-73
2024/01/22 04:41:42;;;;;;;;;;;;;;;7.26;100.00;99985.50;4861428;29;19928;-74
2024/01/22 04:44:07;;;;;;;;;;;;;;;7.27;100.00;99976.44;4862541;29;19954;-73
2024/01/22 04:46:32;;;;;;;;;;;;;;;7.31;100.00;99963.50;4862557;29;20076;-73
2024/01/22 04:48:57;;;;;;;;;;;;;;;7.33;100.00;99986.38;4861389;29;19963;-72
2024/01/22 04:51:23;;;;;;;;;;;;;;;7.38;100.00;99977.75;4862173;29;19932;-73
2024/01/22 04:53:48;;;;;;;;;;;;;;;7.39;100.00;99980.25;4862753;29;20269;-74
2024/01/22 04:56:13;;;;;;;;;;;;;;;7.38;100.00;99957.16;4861912;29;20340;-73
2024/01/22 04:58:38;;;;;;;;;;;;;;;7.45;100.00;99973.25;4862958;29;20337;-73
2024/01/22 05:01:04;;;;;;;;;;;;;;;7.48;100.00;99875.63;4862116;29;19928;-72
2024/01/22 05:03:29;;;;;;;;;;;;;;;7.52;100.00;99946.50;4861827;29;19928;-77
2024/01/22 05:05:54;;;;;;;;;;;;;;;7.49;100.00;99928.16;4861781;29;19961;-74
2024/01/22 05:08:19;;;;;;;;;;;;;;;7.52;100.00;99978.66;4861307;29;19928;-74
2024/01/22 05:10:44;;;;;;;;;;;;;;;7.47;100.00;99978.41;4861239;29;19924;-74
2024/01/22 05:13:10;;;;;;;;;;;;;;;7.51;100.00;99977.00;4861438;29;19989;-74
2024/01/22 05:15:35;;;;;;;;;;;;;;;7.57;100.00;99960.13;4861882;29;19924;-73
2024/01/22 05:18:00;;;;;;;;;;;;;;;7.60;100.00;99965.06;4860878;29;20373;-74
2024/01/22 05:20:25;;;;;;;;;;;;;;;7.64;100.00;99928.84;4861290;29;20347;-74
2024/01/22 05:22:51;;;;;;;;;;;;;;;7.67;100.00;99933.78;4862043;29;19928;-74
2024/01/22 05:25:16;;;;;;;;;;;;;;;7.71;100.00;99927.00;4861573;29;19935;-73
2024/01/22 05:27:44;;;;;;;;;;;;;;;7.73;100.00;99948.22;4844674;29;19932;-74
2024/01/22 05:30:09;;;;;;;;;;;;;;;7.72;100.00;99909.91;4862063;29;19928;-74
2024/01/22 05:32:36;;;;;;;;;;;;;;;7.74;100.00;99880.22;4861225;29;19935;-74
2024/01/22 05:35:01;;;;;;;;;;;;;;;7.76;100.00;99915.69;4860864;29;19928;-74
2024/01/22 05:37:26;;;;;;;;;;;;;;;7.76;100.00;99912.19;4861473;29;20289;-74
2024/01/22 05:39:52;;;;;;;;;;;;;;;7.81;100.00;99864.16;4861214;29;19927;-74
2024/01/22 05:42:17;;;;;;;;;;;;;;;7.87;100.00;99911.59;4861420;29;19985;-74
2024/01/22 05:44:42;;;;;;;;;;;;;;;7.90;100.00;99921.91;4861219;29;20446;-74
2024/01/22 05:47:08;;;;;;;;;;;;;;;7.98;100.00;99848.53;4861249;29;20412;-74
2024/01/22 05:49:33;;;;;;;;;;;;;;;8.02;100.00;99906.88;4860709;29;20384;-74
2024/01/22 05:51:59;;;;;;;;;;;;;;;8.07;100.00;99921.53;4858910;29;19963;-74
2024/01/22 05:54:24;;;;;;;;;;;;;;;8.14;100.00;99907.13;4860892;29;19982;-74
2024/01/22 05:56:49;;;;;;;;;;;;;;;8.16;100.00;99893.50;4860535;29;19963;-74
2024/01/22 05:59:14;;;;;;;;;;;;;;;8.18;100.00;99902.16;4860983;29;19979;-75
2024/01/22 06:01:39;;;;;;;;;;;;;;;8.17;100.00;99912.06;4860817;29;19924;-74
2024/01/22 06:04:06;;;;;;;;;;;;;;;8.16;100.00;99936.38;4861119;29;19980;-74
2024/01/22 06:06:31;;;;;;;;;;;;;;;8.18;100.00;99919.09;4860549;29;19935;-76
2024/01/22 06:08:57;;;;;;;;;;;;;;;8.21;100.00;99906.31;4860931;29;19924;-74
2024/01/22 06:11:22;;;;;;;;;;;;;;;8.23;100.00;99906.91;4859535;29;19980;-75
2024/01/22 06:13:47;;;;;;;;;;;;;;;8.27;100.00;99925.09;4861264;29;19924;-75
2024/01/22 06:16:12;;;;;;;;;;;;;;;8.35;100.00;99924.06;4861007;29;19924;-74
2024/01/22 06:18:38;;;;;;;;;;;;;;;8.33;100.00;99926.91;4847188;29;19967;-73
2024/01/22 06:21:04;;;;;;;;;;;;;;;8.31;100.00;99928.16;4842747;29;19924;-76
2024/01/22 06:23:29;;;;;;;;;;;;;;;8.27;100.00;99949.22;4842374;29;19924;-76
2024/01/22 06:25:56;;;;;;;;;;;;;;;8.22;100.00;99950.81;4840745;29;20028;-74
2024/01/22 06:28:21;;;;;;;;;;;;;;;8.24;100.00;99954.13;4842181;29;20354;-74
2024/01/22 06:30:46;;;;;;;;;;;;;;;8.25;100.00;99951.28;4841921;29;19925;-75
2024/01/22 06:33:12;;;;;;;;;;;;;;;8.23;100.00;99957.84;4840919;29;19980;-75
2024/01/22 06:35:37;;;;;;;;;;;;;;;8.26;100.00;99918.06;4842134;29;19924;-74
2024/01/22 06:38:02;;;;;;;;;;;;;;;8.35;100.00;99919.50;4842033;29;20018;-75
2024/01/22 06:40:30;;;;;;;;;;;;;;;8.35;100.00;99905.28;4841046;29;20073;-74
2024/01/22 06:42:56;;;;;;;;;;;;;;;8.33;100.00;99913.50;4842091;29;19924;-74
2024/01/22 06:45:21;;;;;;;;;;;;;;;8.41;100.00;99935.81;4842039;29;20368;-74
2024/01/22 06:47:49;;;;;;;;;;;;;;;8.42;100.00;99913.31;4840672;29;20503;-74
2024/01/22 06:50:14;;;;;;;;;;;;;;;8.45;100.00;99929.00;4842114;29;19970;-74
2024/01/22 06:52:39;;;;;;;;;;;;;;;8.47;100.00;99913.53;4841960;29;19967;-75
2024/01/22 06:55:05;;;;;;;;;;;;;;;8.51;100.00;99922.03;4840688;29;19933;-75
2024/01/22 06:57:30;;;;;;;;;;;;;;;8.52;100.00;99924.50;4841740;29;19927;-74
2024/01/22 06:59:56;;;;;;;;;;;;;;;8.54;100.00;99943.06;4841933;29;19924;-74
2024/01/22 07:02:21;;;;;;;;;;;;;;;8.52;100.00;99929.03;4840849;29;19935;-75
2024/01/22 07:04:46;;;;;;;;;;;;;;;8.53;100.00;99893.94;4840540;29;20385;-75
2024/01/22 07:07:13;;;;;;;;;;;;;;;8.53;100.00;99931.50;4841711;29;19947;-74
2024/01/22 07:09:38;;;;;;;;;;;;;;;8.53;100.00;99944.91;4840704;29;20228;-74
2024/01/22 07:12:03;;;;;;;;;;;;;;;8.48;100.00;99918.72;4841186;29;19928;-74
2024/01/22 07:14:31;;;;;;;;;;;;;;;8.51;100.00;99938.94;4842412;29;20289;-74
2024/01/22 07:16:57;;;;;;;;;;;;;;;8.45;100.00;99932.50;4840689;29;19925;-74
2024/01/22 07:19:22;;;;;;;;;;;;;;;8.44;100.00;99949.63;4877482;29;19934;-75
2024/01/22 07:21:47;;;;;;;;;;;;;;;8.42;100.00;99945.50;4877923;29;20011;-75
2024/01/22 07:24:12;;;;;;;;;;;;;;;8.38;100.00;99931.69;4877250;29;20027;-74
2024/01/22 07:26:38;;;;;;;;;;;;;;;8.34;100.00;99939.31;4877007;29;19980;-75
2024/01/22 07:29:04;;;;;;;;;;;;;;;8.39;100.00;99943.22;4877948;29;19924;-74
2024/01/22 07:31:29;;;;;;;;;;;;;;;8.47;100.00;99926.94;4877642;29;19931;-74
2024/01/22 07:33:55;;;;;;;;;;;;;;;8.52;100.00;99955.88;4877993;29;20379;-74
2024/01/22 07:36:20;;;;;;;;;;;;;;;8.58;100.00;99971.97;4891792;23;19966;-74
2024/01/22 07:38:47;;;;;;;;;;;;;;;8.59;100.00;99962.88;4896631;29;19927;-74
2024/01/22 07:41:12;;;;;;;;;;;;;;;8.57;100.00;99970.31;4896394;29;19931;-74
2024/01/22 07:43:38;;;;;;;;;;;;;;;8.62;100.00;99967.84;4896688;29;19930;-74
2024/01/22 07:46:03;;;;;;;;;;;;;;;8.64;100.00;99970.31;4896575;29;19927;-74
2024/01/22 07:48:28;;;;;;;;;;;;;;;8.72;100.00;99969.28;4896283;29;19930;-75
2024/01/22 07:50:53;;;;;;;;;;;;;;;8.78;100.00;99973.81;4896060;29;20009;-75
2024/01/22 07:53:18;;;;;;;;;;;;;;;8.75;100.00;99990.34;4902412;23;20034;-75
2024/01/22 07:55:45;;;;;;;;;;;;;;;8.79;100.00;99968.25;4895671;29;20731;-75
2024/01/22 07:58:11;;;;;;;;;;;;;;;8.81;100.00;99992.19;4896344;29;20038;-74
2024/01/22 08:00:37;;;;;;;;;;;;;;;8.79;100.00;99988.91;4896854;29;19919;-74
2024/01/22 08:03:02;;;;;;;;;;;;;;;8.82;100.00;100006.44;4896538;29;19976;-75
2024/01/22 08:05:28;;;;;;;;;;;;;;;8.69;100.00;100008.09;4902206;23;19931;-74
2024/01/22 08:07:53;;;;;;;;;;;;;;;8.74;100.00;100000.22;4896483;29;20444;-74
2024/01/22 08:10:18;;;;;;;;;;;;;;;8.75;100.00;100001.06;4895518;29;20010;-74
2024/01/22 08:12:43;;;;;;;;;;;;;;;8.78;100.00;100000.66;4895997;29;19967;-74
2024/01/22 08:15:14;;;;;;;;;;;;;;;8.74;100.00;99996.72;4896239;29;20463;-74
2024/01/22 08:17:41;;;;;;;;;;;;;;;8.75;100.00;99999.19;4889038;29;19920;-74
2024/01/22 08:20:07;;;;;;;;;;;;;;;8.73;100.00;99990.56;4895326;29;19931;-74
2024/01/22 08:22:32;;;;;;;;;;;;;;;8.86;100.00;100000.44;4896151;29;19932;-74
2024/01/22 08:24:57;;;;;;;;;;;;;;;8.92;100.00;99988.03;4895187;29;19920;-75
2024/01/22 08:27:23;;;;;;;;;;;;;;;8.90;100.00;99999.00;4894399;29;19924;-75
2024/01/22 08:29:48;;;;;;;;;;;;;;;8.92;100.00;100004.16;4896414;29;20452;-74
2024/01/22 08:32:13;;;;;;;;;;;;;;;8.95;100.00;99993.00;4894411;29;20365;-75
2024/01/22 08:34:38;;;;;;;;;;;;;;;8.99;100.00;99999.63;4895973;29;20448;-74
2024/01/22 08:37:04;;;;;;;;;;;;;;;8.92;100.00;99982.69;4896275;29;20384;-75
2024/01/22 08:39:29;;;;;;;;;;;;;;;8.96;100.00;99986.59;4895404;29;19930;-75
2024/01/22 08:41:54;;;;;;;;;;;;;;;8.92;100.00;99977.31;4895902;29;19928;-75
2024/01/22 08:44:20;;;;;;;;;;;;;;;8.89;100.00;99978.56;4896749;29;19923;-75
2024/01/22 08:46:45;;;;;;;;;;;;;;;8.91;100.00;99989.09;4894457;29;20027;-75
2024/01/22 08:49:10;;;;;;;;;;;;;;;8.87;100.00;99986.00;4895869;29;19923;-75
2024/01/22 08:51:35;;;;;;;;;;;;;;;8.81;100.00;100008.31;4896320;29;19924;-75
2024/01/22 08:54:00;;;;;;;;;;;;;;;8.85;100.00;100004.16;4894808;29;19971;-75
2024/01/22 08:56:26;;;;;;;;;;;;;;;8.89;100.00;100008.09;4895395;29;19923;-75
2024/01/22 08:58:51;;;;;;;;;;;;;;;8.99;100.00;99998.81;4896579;29;19923;-75
2024/01/22 09:01:20;;;;;;;;;;;;;;;9.02;100.00;99999.22;4894996;29;19923;-74
2024/01/22 09:03:45;;;;;;;;;;;;;;;9.03;100.00;100005.38;4895355;29;20545;-75
2024/01/22 09:06:10;;;;;;;;;;;;;;;9.05;100.00;100006.00;4896356;29;19942;-75
2024/01/22 09:08:36;;;;;;;;;;;;;;;9.01;100.00;100010.13;4895791;29;19971;-75
2024/01/22 09:11:02;;;;;;;;;;;;;;;9.04;100.00;99991.78;4897111;29;19928;-75
2024/01/22 09:13:27;;;;;;;;;;;;;;;9.12;100.00;99954.97;4899318;29;19924;-75
2024/01/22 09:15:52;;;;;;;;;;;;;;;9.13;100.00;100000.44;4896931;29;19960;-75
2024/01/22 09:18:18;;;;;;;;;;;;;;;9.14;100.00;100018.19;4889835;29;19919;-75
2024/01/22 09:20:46;;;;;;;;;;;;;;;9.17;100.00;99993.63;4897182;29;19924;-75
2024/01/22 09:23:11;;;;;;;;;;;;;;;9.21;100.00;100016.31;4897048;29;20336;-75
2024/01/22 09:25:36;;;;;;;;;;;;;;;9.20;100.00;100017.34;4893977;29;20402;-75
2024/01/22 09:28:02;;;;;;;;;;;;;;;9.19;100.00;100004.16;4895766;29;19930;-75
2024/01/22 09:30:28;;;;;;;;;;;;;;;9.16;100.00;100016.13;4893391;29;19924;-74
2024/01/22 09:32:58;;;;;;;;;;;;;;;9.12;100.00;100014.06;4897444;29;19930;-75
2024/01/22 09:35:26;;;;;;;;;;;;;;;9.18;100.00;100019.41;4898004;29;19923;-75
2024/01/22 09:37:51;;;;;;;;;;;;;;;9.19;100.00;100021.06;4902686;29;19971;-75
2024/01/22 09:40:17;;;;;;;;;;;;;;;9.20;100.00;100021.91;4898091;29;19931;-75
2024/01/22 09:42:45;;;;;;;;;;;;;;;9.22;100.00;100009.09;4896829;29;20384;-74
2024/01/22 09:45:10;;;;;;;;;;;;;;;9.12;100.00;100014.91;4897568;29;20372;-75
2024/01/22 09:47:37;;;;;;;;;;;;;;;8.91;100.00;100008.72;4897794;29;19923;-75
2024/01/22 09:50:02;;;;;;;;;;;;;;;9.02;100.00;99993.84;4896818;29;19919;-74
2024/01/22 09:52:30;;;;;;;;;;;;;;;9.02;100.00;100001.88;4894859;29;19970;-74
2024/01/22 09:54:56;;;;;;;;;;;;;;;8.97;100.00;100003.56;4880433;29;19975;-76
2024/01/22 09:57:21;;;;;;;;;;;;;;;8.92;100.00;100013.03;4875039;29;19927;-74
2024/01/22 09:59:47;;;;;;;;;;;;;;;8.92;100.00;100002.31;4897458;29;19998;-74
2024/01/22 10:02:16;;;;;;;;;;;;;;;8.86;100.00;100005.81;4873504;29;20013;-74
2024/01/22 10:04:41;;;;;;;;;;;;;;;8.83;100.00;99998.16;4896404;29;19923;-75
2024/01/22 10:07:06;;;;;;;;;;;;;;;8.80;100.00;99994.03;4880698;29;20049;-75
2024/01/22 10:09:32;;;;;;;;;;;;;;;8.71;100.00;99997.97;4896638;29;19931;-75
2024/01/22 10:11:57;;;;;;;;;;;;;;;8.75;100.00;99998.38;4877285;29;20436;-75
2024/01/22 10:14:28;;;;;;;;;;;;;;;8.75;100.00;100003.75;4897183;29;19927;-75
2024/01/22 10:16:53;;;;;;;;;;;;;;;8.76;100.00;100024.19;4897124;29;19924;-75
2024/01/22 10:19:18;;;;;;;;;;;;;;;8.67;100.00;100017.34;4895010;29;19970;-76
2024/01/22 10:21:43;;;;;;;;;;;;;;;8.49;100.00;100072.41;4880132;29;19975;-77
2024/01/22 10:24:09;;;;;;;;;;;;;;;8.28;100.00;100157.34;4879599;29;19937;-77
2024/01/22 10:26:34;;;;;;;;;;;;;;;7.65;100.00;100112.63;4896952;29;19987;-77
2024/01/22 10:29:17;;;;;;;;;;;;;;;7.10;100.00;100110.56;4896765;29;19924;-76
2024/01/22 10:31:52;;;;;;;;;;;;;;;6.85;100.00;100103.97;4896370;29;19928;-76
2024/01/22 10:34:17;;;;;;;;;;;;;;;6.70;100.00;100104.88;4895945;29;20287;-77
2024/01/22 10:36:43;;;;;;;;;;;;;;;6.69;100.00;100113.91;4896578;29;19923;-77
2024/01/22 10:39:09;;;;;;;;;;;;;;;6.82;100.00;100108.69;4895950;29;19930;-77
2024/01/22 10:41:35;;;;;;;;;;;;;;;6.94;100.00;100109.00;4896202;29;19973;-78
2024/01/22 10:44:00;;;;;;;;;;;;;;;7.11;100.00;100122.94;4897704;29;20373;-78
2024/01/22 10:46:26;;;;;;;;;;;;;;;7.21;100.00;100119.94;4895470;29;20377;-78
2024/01/22 10:48:51;;;;;;;;;;;;;;;7.27;100.00;100121.84;4896054;29;19923;-79
2024/01/22 10:51:16;;;;;;;;;;;;;;;7.28;100.00;100111.97;4879667;29;19931;-78
2024/01/22 10:53:42;;;;;;;;;;;;;;;7.30;100.00;100125.16;4878789;29;19973;-78
2024/01/22 10:56:22;;;;;;;;;;;;;;;7.30;100.00;100122.50;4896259;29;20364;-79
2024/01/22 10:58:47;;;;;;;;;;;;;;;7.32;100.00;100107.88;4897036;29;19935;-78
2024/01/22 11:01:16;;;;;;;;;;;;;;;7.30;100.00;100128.66;4878371;29;19923;-78
2024/01/22 11:03:43;;;;;;;;;;;;;;;7.22;100.00;100131.50;4896829;29;19930;-79
2024/01/22 11:06:09;;;;;;;;;;;;;;;7.14;100.00;100127.09;4895806;29;19928;-79
2024/01/22 11:08:34;;;;;;;;;;;;;;;7.11;100.00;100141.66;4879049;29;19930;-78
2024/01/22 11:10:59;;;;;;;;;;;;;;;7.06;100.00;100146.75;4896002;29;20402;-79
2024/01/22 11:13:25;;;;;;;;;;;;;;;7.07;100.00;100143.06;4897175;29;20391;-79
2024/01/22 11:15:50;;;;;;;;;;;;;;;7.08;100.00;100151.94;4894475;29;19987;-78
2024/01/22 11:18:15;;;;;;;;;;;;;;;7.10;100.00;100169.47;4895973;29;19962;-79
2024/01/22 11:20:40;;;;;;;;;;;;;;;7.21;100.00;100169.97;4894881;29;19970;-78
2024/01/22 11:23:08;;;;;;;;;;;;;;;7.30;100.00;100173.34;4895452;29;19926;-78
2024/01/22 11:25:34;;;;;;;;;;;;;;;7.32;100.00;100184.72;4895703;29;19930;-78
2024/01/22 11:28:09;;;;;;;;;;;;;;;7.33;100.00;100176.47;4896577;29;19924;-79
2024/01/22 11:30:35;;;;;;;;;;;;;;;7.37;100.00;100166.19;4895458;29;20265;-78
2024/01/22 11:33:00;;;;;;;;;;;;;;;7.35;100.00;100179.78;4895718;29;19930;-78
2024/01/22 11:35:38;;;;;;;;;;;;;;;7.40;100.00;100169.34;4895756;29;19923;-78
2024/01/22 11:38:03;;;;;;;;;;;;;;;7.49;100.00;100171.88;4895770;29;19924;-79
2024/01/22 11:40:47;;;;;;;;;;;;;;;7.60;100.00;100192.75;4895349;29;19930;-79
2024/01/22 11:43:16;;;;;;;;;;;;;;;7.67;100.00;100193.66;4895289;29;20468;-78
2024/01/22 11:45:42;;;;;;;;;;;;;;;7.70;100.00;100187.91;4887651;29;19931;-78
2024/01/22 11:48:15;;;;;;;;;;;;;;;7.73;100.00;100190.19;4895170;29;19929;-78
2024/01/22 11:50:40;;;;;;;;;;;;;;;7.64;100.00;100207.41;4895680;29;20024;-78
2024/01/22 11:53:06;;;;;;;;;;;;;;;7.64;100.00;100201.25;4894904;29;19958;-78
2024/01/22 11:55:31;;;;;;;;;;;;;;;7.73;100.00;100213.47;4895934;29;19939;-79
2024/01/22 11:57:56;;;;;;;;;;;;;;;7.80;100.00;100189.41;4894834;29;19928;-78
2024/01/22 12:00:22;;;;;;;;;;;;;;;8.00;100.00;100211.81;4896063;29;19923;-78
2024/01/22 12:02:49;;;;;;;;;;;;;;;8.51;100.00;100201.81;4894780;29;20064;-78
2024/01/22 12:05:17;;;;;;;;;;;;;;;8.61;100.00;100213.03;4895682;29;19924;-78
2024/01/22 12:07:43;;;;;;;;;;;;;;;9.14;100.00;100219.59;4894996;29;20403;-78
2024/01/22 12:10:21;;;;;;;;;;;;;;;9.76;100.00;100216.75;4899250;29;19923;-79
2024/01/22 12:12:52;;;;;;;;;;;;;;;10.29;100.00;100228.47;4898207;29;19934;-78
2024/01/22 12:15:18;;;;;;;;;;;;;;;10.33;96.80;100229.72;4897118;29;19931;-77
2024/01/22 12:17:44;;;;;;;;;;;;;;;10.26;97.47;100218.97;4894769;29;20307;-78
2024/01/22 12:20:09;;;;;;;;;;;;;;;10.29;96.98;100223.09;4896015;29;20240;-78
2024/01/22 12:22:34;;;;;;;;;;;;;;;9.62;98.94;100228.53;4894898;29;19988;-78
2024/01/22 12:25:02;;;;;;;;;;;;;;;9.86;99.31;100233.31;4894326;29;20055;-77
2024/01/22 12:27:29;;;;;;;;;;;;;;;10.55;96.11;100237.56;4895638;29;19971;-77
2024/01/22 12:30:03;;;;;;;;;;;;;;;10.48;92.34;100244.81;4897230;29;19919;-77
2024/01/22 12:32:29;;;;;;;;;;;;;;;10.87;92.36;100251.91;4893699;29;19924;-77